Time;durP1;ratioP1;P1;durP2;ratioP2;P2;SDS_P1;SDS_P2;PMS_P1;PMS_P2;Temp;Humidity;BMP_temperature;BMP_pressure;BME280_temperature;BME280_humidity;BME280_pressure;Samples;Min_cycle;Max_cycle;Signal;HPM_P1;HPM_P2
2023/03/08 00:01:36;;;;;;;2.80;2.07;;;0.90;99.90;;;;;;5034624;28;20342;-62
2023/03/08 00:04:02;;;;;;;2.73;2.00;;;0.80;99.90;;;;;;5038119;28;20262;-62
2023/03/08 00:06:28;;;;;;;2.23;1.93;;;0.70;99.90;;;;;;5034877;28;20172;-62
2023/03/08 00:08:55;;;;;;;5.23;1.90;;;0.60;99.90;;;;;;5045949;28;20441;-62
2023/03/08 00:11:21;;;;;;;2.63;2.43;;;0.60;99.90;;;;;;5034373;28;20498;-63
2023/03/08 00:13:47;;;;;;;6.03;1.93;;;0.80;99.90;;;;;;5039181;28;20422;-62
2023/03/08 00:16:12;;;;;;;3.97;2.00;;;0.60;99.90;;;;;;5045076;28;20177;-63
2023/03/08 00:18:38;;;;;;;2.60;1.77;;;0.60;99.90;;;;;;5030262;28;20211;-63
2023/03/08 00:21:07;;;;;;;3.60;1.80;;;0.70;99.90;;;;;;5024464;28;20511;-63
2023/03/08 00:23:33;;;;;;;3.50;1.63;;;0.70;99.90;;;;;;5038887;28;20444;-62
2023/03/08 00:25:59;;;;;;;2.53;1.80;;;0.70;99.90;;;;;;5038557;28;20454;-62
2023/03/08 00:28:25;;;;;;;2.40;2.20;;;0.50;99.90;;;;;;5038223;28;20952;-62
2023/03/08 00:30:58;;;;;;;1.70;1.60;;;0.40;99.90;;;;;;5031329;28;20541;-63
2023/03/08 00:33:24;;;;;;;2.23;1.73;;;0.30;99.90;;;;;;5014803;28;20199;-64
2023/03/08 00:36:04;;;;;;;3.33;2.13;;;0.30;99.90;;;;;;5027215;28;20462;-62
2023/03/08 00:38:31;;;;;;;5.97;2.03;;;0.30;99.90;;;;;;5027209;28;20190;-61
2023/03/08 00:40:58;;;;;;;1.97;1.77;;;0.20;99.90;;;;;;5036434;28;20409;-60
2023/03/08 00:43:24;;;;;;;4.20;2.03;;;0.40;99.90;;;;;;5045343;28;20464;-62
2023/03/08 00:45:49;;;;;;;3.97;2.27;;;0.50;99.90;;;;;;5045888;28;20779;-63
2023/03/08 00:48:15;;;;;;;4.53;3.07;;;0.40;99.90;;;;;;5043994;28;20441;-64
2023/03/08 00:50:41;;;;;;;3.93;2.27;;;0.40;99.90;;;;;;5045790;28;20652;-63
2023/03/08 00:53:07;;;;;;;3.87;2.00;;;0.40;99.90;;;;;;5041378;28;20665;-65
2023/03/08 00:55:33;;;;;;;2.07;1.93;;;0.40;99.90;;;;;;5040867;28;20167;-62
2023/03/08 00:57:58;;;;;;;4.00;2.70;;;0.20;99.90;;;;;;5038352;28;20442;-63
2023/03/08 01:00:24;;;;;;;2.80;1.97;;;0.10;99.90;;;;;;5044996;28;20237;-62
2023/03/08 01:02:49;;;;;;;4.80;2.67;;;0.10;99.90;;;;;;5045604;28;20175;-62
2023/03/08 01:05:15;;;;;;;5.17;2.93;;;0.20;99.90;;;;;;5043832;28;20608;-65
2023/03/08 01:07:41;;;;;;;3.00;2.10;;;0.20;99.90;;;;;;5045596;28;20199;-60
2023/03/08 01:10:07;;;;;;;3.40;2.20;;;0.20;99.90;;;;;;5044218;28;20400;-62
2023/03/08 01:12:34;;;;;;;4.20;2.77;;;0.10;99.90;;;;;;5035280;28;20209;-62
2023/03/08 01:15:00;;;;;;;1.90;1.80;;;0.20;99.90;;;;;;5043824;28;20483;-60
2023/03/08 01:17:26;;;;;;;4.80;2.50;;;0.00;99.90;;;;;;5041427;28;20422;-60
2023/03/08 01:19:51;;;;;;;5.07;2.10;;;-0.10;99.90;;;;;;5044073;28;20469;-64
2023/03/08 01:22:17;;;;;;;3.27;2.20;;;-0.10;99.90;;;;;;5041788;28;20171;-63
2023/03/08 01:24:44;;;;;;;3.63;2.53;;;-0.10;99.90;;;;;;5039772;28;20175;-60
2023/03/08 01:27:10;;;;;;;3.30;1.97;;;0.00;99.90;;;;;;5042728;28;20181;-60
2023/03/08 01:29:35;;;;;;;2.30;2.10;;;0.10;99.90;;;;;;5039536;28;20504;-64
2023/03/08 01:32:01;;;;;;;4.47;3.23;;;0.10;99.90;;;;;;5043779;28;20222;-62
2023/03/08 01:34:27;;;;;;;2.43;2.20;;;0.10;99.90;;;;;;5039249;28;20170;-63
2023/03/08 01:36:52;;;;;;;3.80;2.50;;;0.00;99.90;;;;;;5043892;28;20232;-62
2023/03/08 01:39:18;;;;;;;4.27;3.30;;;-0.10;99.90;;;;;;5041421;28;20286;-62
2023/03/08 01:41:44;;;;;;;4.70;2.97;;;0.00;99.90;;;;;;5039517;28;20587;-61
2023/03/08 01:44:18;;;;;;;3.40;2.20;;;0.10;99.90;;;;;;5038507;28;20666;-61
2023/03/08 01:46:44;;;;;;;7.60;3.40;;;0.20;99.90;;;;;;5044165;28;20249;-62
2023/03/08 01:49:15;;;;;;;4.77;3.17;;;0.10;99.90;;;;;;5040620;28;20521;-62
2023/03/08 01:52:05;;;;;;;7.50;4.10;;;0.00;99.90;;;;;;5044197;28;20221;-62
2023/03/08 01:54:46;;;;;;;8.33;3.13;;;0.00;99.90;;;;;;5036087;28;20421;-63
2023/03/08 01:57:31;;;;;;;3.73;2.97;;;-0.10;99.90;;;;;;5042865;28;20454;-62
2023/03/08 02:00:04;;;;;;;5.70;2.63;;;-0.10;99.90;;;;;;5043503;28;20467;-62
2023/03/08 02:02:38;;;;;;;11.93;3.00;;;-0.20;99.90;;;;;;5036219;28;20497;-62
2023/03/08 02:05:05;;;;;;;7.10;4.73;;;-0.20;99.90;;;;;;5048602;28;20938;-61
2023/03/08 02:07:34;;;;;;;5.00;2.93;;;-0.10;99.90;;;;;;5057031;22;20496;-70
2023/03/08 02:09:59;;;;;;;6.50;3.40;;;0.00;99.90;;;;;;5032868;28;20421;-69
2023/03/08 02:12:25;;;;;;;8.00;4.00;;;0.00;99.90;;;;;;5041339;28;20407;-70
2023/03/08 02:14:52;;;;;;;7.17;2.80;;;0.00;99.90;;;;;;5034412;28;20183;-70
2023/03/08 02:17:18;;;;;;;7.70;4.00;;;0.00;99.90;;;;;;5041885;28;20549;-70
2023/03/08 02:19:52;;;;;;;5.23;3.80;;;0.00;99.90;;;;;;5044101;28;20540;-70
2023/03/08 02:22:19;;;;;;;5.10;4.23;;;0.00;99.90;;;;;;5040947;28;20402;-69
2023/03/08 02:24:44;;;;;;;10.73;3.50;;;0.00;99.90;;;;;;5042966;28;20425;-69
2023/03/08 02:27:15;;;;;;;4.23;3.77;;;0.00;99.90;;;;;;5042497;28;20425;-69
2023/03/08 02:29:40;;;;;;;4.50;4.10;;;-0.10;99.90;;;;;;5043238;28;20170;-69
2023/03/08 02:32:06;;;;;;;5.73;4.50;;;-0.20;99.90;;;;;;5043171;28;20412;-69
2023/03/08 02:34:32;;;;;;;9.23;4.70;;;-0.30;99.90;;;;;;5035333;28;20290;-69
2023/03/08 02:36:58;;;;;;;8.00;4.60;;;-0.20;99.90;;;;;;5039536;28;20425;-69
2023/03/08 02:39:23;;;;;;;7.37;5.87;;;-0.10;99.90;;;;;;5034923;28;20691;-68
2023/03/08 02:41:49;;;;;;;6.27;4.27;;;-0.20;99.90;;;;;;5024708;28;20258;-69
2023/03/08 02:44:14;;;;;;;7.87;4.50;;;-0.30;99.90;;;;;;5034013;28;20190;-69
2023/03/08 02:46:40;;;;;;;6.80;3.80;;;-0.10;99.90;;;;;;5043174;28;20191;-69
2023/03/08 02:49:05;;;;;;;7.30;4.47;;;-0.20;99.90;;;;;;5043120;28;20224;-70
2023/03/08 02:51:31;;;;;;;6.57;4.50;;;-0.10;99.90;;;;;;5043029;28;20250;-70
2023/03/08 02:53:57;;;;;;;8.53;5.40;;;0.00;99.90;;;;;;5036143;28;20211;-70
2023/03/08 02:56:22;;;;;;;7.37;5.50;;;0.10;99.90;;;;;;5044668;28;20210;-70
2023/03/08 02:58:48;;;;;;;14.50;7.03;;;0.10;99.90;;;;;;5036574;28;20350;-71
2023/03/08 03:01:14;;;;;;;4.77;4.00;;;0.10;99.90;;;;;;5042585;28;20438;-70
2023/03/08 03:03:40;;;;;;;10.60;5.40;;;0.10;99.90;;;;;;5038889;28;20213;-69
2023/03/08 03:06:18;;;;;;;8.40;6.90;;;0.10;99.90;;;;;;5035257;28;20933;-69
2023/03/08 03:08:45;;;;;;;6.43;4.60;;;0.20;99.90;;;;;;5040151;28;20986;-70
2023/03/08 03:11:14;;;;;;;7.70;5.37;;;0.20;99.90;;;;;;5041160;28;20606;-70
2023/03/08 03:13:39;;;;;;;8.63;5.97;;;0.20;99.90;;;;;;5042799;28;20417;-70
2023/03/08 03:16:10;;;;;;;7.90;4.87;;;0.30;99.90;;;;;;5042232;28;20424;-71
2023/03/08 03:18:35;;;;;;;8.60;4.97;;;0.30;99.90;;;;;;5038874;28;20184;-69
2023/03/08 03:21:07;;;;;;;10.10;5.77;;;0.40;99.90;;;;;;5046477;28;20694;-69
2023/03/08 03:23:33;;;;;;;9.83;5.67;;;0.30;99.90;;;;;;5011192;28;20175;-70
2023/03/08 03:26:16;;;;;;;9.70;6.97;;;0.40;99.90;;;;;;5040923;28;20492;-70
2023/03/08 03:28:42;;;;;;;11.10;6.00;;;0.40;99.90;;;;;;5036138;28;20516;-70
2023/03/08 03:31:17;;;;;;;10.07;5.50;;;0.40;99.90;;;;;;5034292;28;20417;-70
2023/03/08 03:33:43;;;;;;;9.87;5.77;;;0.40;99.90;;;;;;5037235;28;20436;-70
2023/03/08 03:36:12;;;;;;;8.33;6.00;;;0.40;99.90;;;;;;5038168;28;20417;-69
2023/03/08 03:38:38;;;;;;;11.93;6.07;;;0.40;99.90;;;;;;5042838;28;20950;-69
2023/03/08 03:41:12;;;;;;;11.90;6.80;;;0.40;99.90;;;;;;5042418;28;20428;-69
2023/03/08 03:43:39;;;;;;;10.60;6.90;;;0.40;99.90;;;;;;5048538;28;20730;-70
2023/03/08 03:46:09;;;;;;;8.07;6.87;;;0.40;99.90;;;;;;5051186;28;20787;-70
2023/03/08 03:48:35;;;;;;;9.10;6.23;;;0.40;99.90;;;;;;5031443;28;20422;-70
2023/03/08 03:51:06;;;;;;;10.43;6.23;;;0.40;99.90;;;;;;5038662;28;20406;-70
2023/03/08 03:53:33;;;;;;;16.63;6.80;;;0.50;99.90;;;;;;5035051;28;20912;-70
2023/03/08 03:56:07;;;;;;;9.63;6.40;;;0.50;99.90;;;;;;5038432;28;20409;-70
2023/03/08 03:58:32;;;;;;;11.47;5.80;;;0.50;99.90;;;;;;5027208;28;20445;-70
2023/03/08 04:00:58;;;;;;;7.13;5.73;;;0.50;99.90;;;;;;5034737;28;20888;-69
2023/03/08 04:03:24;;;;;;;10.67;6.50;;;0.50;99.90;;;;;;5039389;28;20633;-71
2023/03/08 04:05:50;;;;;;;12.87;7.23;;;0.50;99.90;;;;;;5039386;28;20175;-70
2023/03/08 04:08:15;;;;;;;11.33;7.70;;;0.50;99.90;;;;;;5045235;28;20464;-69
2023/03/08 04:10:41;;;;;;;8.90;6.40;;;0.50;99.90;;;;;;5039403;28;20258;-70
2023/03/08 04:13:09;;;;;;;13.83;7.83;;;0.50;99.90;;;;;;5050082;28;20205;-69
2023/03/08 04:15:34;;;;;;;9.93;7.20;;;0.50;99.90;;;;;;5045274;28;20178;-69
2023/03/08 04:18:00;;;;;;;10.03;5.97;;;0.50;99.90;;;;;;5045833;28;20486;-69
2023/03/08 04:20:26;;;;;;;9.53;6.67;;;0.60;99.90;;;;;;5034610;28;20223;-68
2023/03/08 04:22:52;;;;;;;8.33;6.03;;;0.50;99.90;;;;;;5039646;28;20167;-69
2023/03/08 04:25:17;;;;;;;9.83;6.00;;;0.50;99.90;;;;;;5044782;28;20405;-69
2023/03/08 04:27:43;;;;;;;13.47;6.87;;;0.50;99.90;;;;;;5034223;28;20325;-69
2023/03/08 04:30:11;;;;;;;7.80;6.90;;;0.60;99.90;;;;;;5045654;28;20171;-68
2023/03/08 04:32:36;;;;;;;9.50;6.10;;;0.60;99.90;;;;;;5037053;28;20159;-69
2023/03/08 04:35:02;;;;;;;8.10;5.13;;;0.50;99.90;;;;;;5045480;28;20471;-69
2023/03/08 04:37:29;;;;;;;8.93;5.60;;;0.50;99.90;;;;;;5042300;28;20222;-68
2023/03/08 04:39:55;;;;;;;9.97;6.10;;;0.60;99.90;;;;;;5045402;28;20558;-70
2023/03/08 04:42:20;;;;;;;8.03;5.50;;;0.60;99.90;;;;;;5042861;28;20488;-69
2023/03/08 04:44:46;;;;;;;7.23;5.60;;;0.60;99.90;;;;;;5039735;28;20869;-70
2023/03/08 04:47:11;;;;;;;7.60;5.50;;;0.50;99.90;;;;;;5037654;28;20294;-69
2023/03/08 04:49:37;;;;;;;5.40;4.90;;;0.50;99.90;;;;;;5040441;28;20238;-69
2023/03/08 04:52:03;;;;;;;12.67;7.17;;;0.50;99.90;;;;;;5037899;28;20610;-70
2023/03/08 04:54:28;;;;;;;7.67;5.97;;;0.40;99.90;;;;;;5036653;28;20201;-71
2023/03/08 04:56:54;;;;;;;8.90;6.60;;;0.30;99.90;;;;;;5045769;28;20199;-69
2023/03/08 04:59:20;;;;;;;13.73;7.27;;;0.20;99.90;;;;;;5042848;28;20305;-69
2023/03/08 05:01:45;;;;;;;9.10;6.10;;;0.10;99.90;;;;;;5039161;28;20168;-69
2023/03/08 05:04:11;;;;;;;14.90;7.43;;;0.00;99.90;;;;;;5044972;28;20273;-69
2023/03/08 05:06:37;;;;;;;11.27;7.97;;;0.00;99.90;;;;;;5044546;28;20614;-70
2023/03/08 05:09:02;;;;;;;8.73;6.10;;;-0.10;99.90;;;;;;5036798;28;20194;-69
2023/03/08 05:11:29;;;;;;;10.33;7.57;;;-0.20;99.90;;;;;;5033442;28;20182;-69
2023/03/08 05:13:56;;;;;;;18.50;5.90;;;-0.20;99.90;;;;;;5040431;28;20171;-70
2023/03/08 05:16:22;;;;;;;9.03;4.73;;;-0.30;99.90;;;;;;5038244;28;20504;-69
2023/03/08 05:18:48;;;;;;;8.00;6.03;;;-0.30;99.90;;;;;;5034531;28;20411;-69
2023/03/08 05:21:19;;;;;;;9.50;5.73;;;-0.30;99.90;;;;;;5049065;28;20402;-70
2023/03/08 05:23:46;;;;;;;7.50;5.60;;;-0.30;99.90;;;;;;5040629;28;20402;-70
2023/03/08 05:26:14;;;;;;;12.63;6.50;;;-0.30;99.90;;;;;;5034402;28;20960;-70
2023/03/08 05:28:43;;;;;;;8.53;5.67;;;-0.20;99.90;;;;;;5045079;28;20425;-69
2023/03/08 05:31:19;;;;;;;6.77;6.00;;;-0.20;99.90;;;;;;5041844;28;20417;-71
2023/03/08 05:33:48;;;;;;;9.20;5.37;;;-0.20;99.90;;;;;;5045208;28;20515;-68
2023/03/08 05:36:14;;;;;;;7.53;5.97;;;-0.20;99.90;;;;;;5042314;28;20904;-69
2023/03/08 05:38:41;;;;;;;7.77;5.70;;;-0.20;99.90;;;;;;5046429;28;20529;-70
2023/03/08 05:41:10;;;;;;;8.20;5.70;;;-0.20;99.90;;;;;;5038434;28;20391;-70
2023/03/08 05:43:35;;;;;;;8.00;6.00;;;-0.10;99.90;;;;;;5039428;28;20407;-69
2023/03/08 05:46:04;;;;;;;7.93;5.20;;;-0.10;99.90;;;;;;5040504;28;20960;-69
2023/03/08 05:48:31;;;;;;;11.80;6.30;;;0.00;99.90;;;;;;5029295;28;20214;-70
2023/03/08 05:50:57;;;;;;;10.90;8.10;;;0.10;99.90;;;;;;5039666;28;20426;-70
2023/03/08 05:53:23;;;;;;;11.77;7.80;;;0.10;99.90;;;;;;5043375;28;20444;-69
2023/03/08 05:55:49;;;;;;;12.20;7.10;;;0.20;99.90;;;;;;5042251;28;20930;-70
2023/03/08 05:58:15;;;;;;;7.80;7.00;;;0.30;99.90;;;;;;5036342;28;20242;-70
2023/03/08 06:00:40;;;;;;;9.60;6.07;;;0.30;99.90;;;;;;5043856;28;20543;-70
2023/03/08 06:03:06;;;;;;;8.03;5.63;;;0.40;99.90;;;;;;5041144;28;20407;-69
2023/03/08 06:05:32;;;;;;;8.87;6.10;;;0.40;99.90;;;;;;5033101;28;20206;-68
2023/03/08 06:07:58;;;;;;;8.20;5.47;;;0.40;99.90;;;;;;5039849;28;20681;-68
2023/03/08 06:10:23;;;;;;;9.57;6.03;;;0.50;99.90;;;;;;5036567;28;20412;-68
2023/03/08 06:12:49;;;;;;;9.00;7.30;;;0.50;99.90;;;;;;5044852;28;20258;-70
2023/03/08 06:15:15;;;;;;;7.53;6.43;;;0.60;99.90;;;;;;5032615;28;20425;-69
2023/03/08 06:17:41;;;;;;;10.03;6.10;;;0.60;99.90;;;;;;5037885;28;20559;-69
2023/03/08 06:20:08;;;;;;;10.03;6.53;;;0.70;99.90;;;;;;5040263;28;20552;-70
2023/03/08 06:22:34;;;;;;;8.43;6.43;;;0.70;99.90;;;;;;5036122;28;20212;-70
2023/03/08 06:25:00;;;;;;;7.73;5.47;;;0.70;99.90;;;;;;5045930;28;20409;-69
2023/03/08 06:27:25;;;;;;;8.47;5.53;;;0.70;99.90;;;;;;5041901;28;20865;-69
2023/03/08 06:29:51;;;;;;;7.97;6.10;;;0.70;99.90;;;;;;5043244;28;20992;-69
2023/03/08 06:32:17;;;;;;;10.20;6.40;;;0.70;99.90;;;;;;5041799;28;20175;-68
2023/03/08 06:34:43;;;;;;;8.43;5.67;;;0.70;99.90;;;;;;5042465;28;20225;-70
2023/03/08 06:37:09;;;;;;;9.20;5.87;;;0.70;99.90;;;;;;5047245;28;20860;-69
2023/03/08 06:39:36;;;;;;;8.63;5.20;;;0.80;99.90;;;;;;5043136;28;20457;-71
2023/03/08 06:42:02;;;;;;;7.63;6.27;;;0.80;99.90;;;;;;5044813;28;20633;-70
2023/03/08 06:44:28;;;;;;;8.73;5.67;;;0.90;99.90;;;;;;5031329;28;20415;-69
2023/03/08 06:46:54;;;;;;;10.17;6.60;;;0.90;99.90;;;;;;5041738;28;20249;-70
2023/03/08 06:49:20;;;;;;;7.90;6.30;;;1.10;99.90;;;;;;5034060;28;20445;-69
2023/03/08 06:51:45;;;;;;;7.30;5.07;;;1.20;99.90;;;;;;5042728;28;20203;-68
2023/03/08 06:54:16;;;;;;;9.17;5.50;;;1.50;99.90;;;;;;5046150;28;20425;-68
2023/03/08 06:56:45;;;;;;;9.00;5.70;;;1.60;99.90;;;;;;5042780;28;20199;-70
2023/03/08 06:59:12;;;;;;;6.17;5.67;;;1.70;99.90;;;;;;5040625;28;20489;-69
2023/03/08 07:01:38;;;;;;;4.73;4.30;;;1.80;99.90;;;;;;5030401;28;20410;-70
2023/03/08 07:04:03;;;;;;;6.47;4.97;;;1.90;99.90;;;;;;5042998;28;20773;-70
2023/03/08 07:06:29;;;;;;;10.23;5.30;;;2.10;99.90;;;;;;5034131;28;20171;-70
2023/03/08 07:08:54;;;;;;;4.83;4.33;;;2.40;99.90;;;;;;5035579;28;20258;-69
2023/03/08 07:11:20;;;;;;;5.27;4.50;;;2.30;99.90;;;;;;5043015;28;20178;-69
2023/03/08 07:13:45;;;;;;;7.93;6.00;;;2.30;99.90;;;;;;5036793;28;20164;-69
2023/03/08 07:16:12;;;;;;;5.80;4.40;;;2.40;99.90;;;;;;5042209;28;20203;-70
2023/03/08 07:18:38;;;;;;;6.50;5.60;;;2.60;99.90;;;;;;5032244;28;20196;-69
2023/03/08 07:21:04;;;;;;;8.00;6.93;;;2.50;99.90;;;;;;5042820;28;20405;-69
2023/03/08 07:23:30;;;;;;;8.27;5.90;;;3.00;99.90;;;;;;5038865;28;20403;-69
2023/03/08 07:25:55;;;;;;;6.00;4.53;;;3.00;99.90;;;;;;5030973;28;20469;-70
2023/03/08 07:28:22;;;;;;;5.40;4.13;;;3.10;99.90;;;;;;5038011;28;20191;-70
2023/03/08 07:30:49;;;;;;;7.70;4.50;;;3.20;99.90;;;;;;5039649;28;20186;-69
2023/03/08 07:33:16;;;;;;;8.13;4.40;;;3.40;99.90;;;;;;5046221;28;20415;-69
2023/03/08 07:35:41;;;;;;;7.23;4.80;;;3.60;99.90;;;;;;5038714;28;20410;-72
2023/03/08 07:38:07;;;;;;;7.33;6.03;;;3.60;99.90;;;;;;5038545;28;20425;-70
2023/03/08 07:40:33;;;;;;;6.20;4.83;;;4.10;99.90;;;;;;5033065;28;20247;-69
2023/03/08 07:42:59;;;;;;;7.90;5.70;;;4.20;99.90;;;;;;5038742;28;20168;-69
2023/03/08 07:45:25;;;;;;;9.87;7.90;;;4.20;99.90;;;;;;5039662;28;20178;-70
2023/03/08 07:47:53;;;;;;;6.73;5.50;;;4.40;99.90;;;;;;5035638;28;20970;-68
2023/03/08 07:50:20;;;;;;;6.47;5.03;;;4.40;99.90;;;;;;5048469;28;20232;-69
2023/03/08 07:52:46;;;;;;;5.43;4.70;;;4.30;99.90;;;;;;5018193;28;20742;-70
2023/03/08 07:55:12;;;;;;;6.83;5.27;;;4.50;99.90;;;;;;5049956;28;20415;-68
2023/03/08 07:57:38;;;;;;;9.80;6.03;;;4.50;99.90;;;;;;5041559;28;20444;-69
2023/03/08 08:00:08;;;;;;;7.00;5.40;;;4.70;99.90;;;;;;5023939;28;20673;-69
2023/03/08 08:02:35;;;;;;;5.67;4.70;;;4.70;99.90;;;;;;5041645;28;20190;-68
2023/03/08 08:05:02;;;;;;;4.40;3.73;;;4.80;99.90;;;;;;5034775;28;20433;-69
2023/03/08 08:07:28;;;;;;;4.87;4.37;;;4.90;99.90;;;;;;5036848;28;20845;-68
2023/03/08 08:09:53;;;;;;;5.20;4.30;;;5.30;99.90;;;;;;5042815;28;20460;-69
2023/03/08 08:12:19;;;;;;;5.90;4.37;;;5.10;99.90;;;;;;5049450;28;20397;-68
2023/03/08 08:14:45;;;;;;;5.07;4.33;;;5.10;99.90;;;;;;5041911;28;20176;-70
2023/03/08 08:17:11;;;;;;;4.40;3.53;;;4.90;99.90;;;;;;5042561;28;20274;-70
2023/03/08 08:19:37;;;;;;;4.70;4.30;;;4.90;99.90;;;;;;5044977;28;20222;-68
2023/03/08 08:22:03;;;;;;;6.40;4.47;;;4.90;99.90;;;;;;5044256;28;20164;-69
2023/03/08 08:24:31;;;;;;;5.50;4.03;;;5.90;99.90;;;;;;5028005;28;20457;-69
2023/03/08 08:26:57;;;;;;;7.43;5.50;;;6.50;99.90;;;;;;5034686;28;20434;-70
2023/03/08 08:29:22;;;;;;;4.97;4.37;;;6.30;99.90;;;;;;5044314;28;20413;-69
2023/03/08 08:31:51;;;;;;;4.60;4.20;;;5.80;99.90;;;;;;5026971;28;20174;-68
2023/03/08 08:34:18;;;;;;;7.03;4.80;;;5.50;99.90;;;;;;5042917;28;20259;-69
2023/03/08 08:36:43;;;;;;;5.13;4.40;;;5.70;99.90;;;;;;5039000;28;20438;-70
2023/03/08 08:39:09;;;;;;;4.93;4.10;;;5.50;99.90;;;;;;5038700;28;20786;-68
2023/03/08 08:41:35;;;;;;;5.40;4.27;;;5.70;99.90;;;;;;5029504;28;20210;-69
2023/03/08 08:44:00;;;;;;;7.63;5.20;;;5.30;99.90;;;;;;5042714;28;20181;-69
2023/03/08 08:46:27;;;;;;;3.90;3.60;;;5.70;99.90;;;;;;5044226;28;20171;-69
2023/03/08 08:48:53;;;;;;;5.80;4.17;;;6.10;99.90;;;;;;5037294;28;20161;-69
2023/03/08 08:51:19;;;;;;;4.47;3.90;;;6.70;99.90;;;;;;5038472;28;20742;-70
2023/03/08 08:53:45;;;;;;;5.43;4.73;;;7.30;99.90;;;;;;5044492;28;20436;-69
2023/03/08 08:56:19;;;;;;;5.67;5.10;;;7.20;99.90;;;;;;5043828;28;20187;-70
2023/03/08 08:58:47;;;;;;;6.83;4.50;;;7.90;99.90;;;;;;5043562;28;20244;-70
2023/03/08 09:01:33;;;;;;;4.93;4.50;;;7.80;99.90;;;;;;5042270;28;20417;-70
2023/03/08 09:03:59;;;;;;;6.17;5.43;;;6.90;99.90;;;;;;5036964;28;20444;-70
2023/03/08 09:06:25;;;;;;;5.90;4.80;;;6.50;99.90;;;;;;5039438;28;20406;-69
2023/03/08 09:08:53;;;;;;;5.80;4.30;;;6.00;99.90;;;;;;5043739;28;20182;-69
2023/03/08 09:11:20;;;;;;;3.97;3.67;;;6.20;99.90;;;;;;5061791;22;20631;-65
2023/03/08 09:13:45;;;;;;;4.70;3.20;;;6.90;99.90;;;;;;5033839;28;20445;-66
2023/03/08 09:16:25;;;;;;;6.10;4.10;;;6.30;99.90;;;;;;5041688;28;20924;-65
2023/03/08 09:18:51;;;;;;;3.87;3.47;;;5.70;99.90;;;;;;5045600;28;20179;-66
2023/03/08 09:21:18;;;;;;;3.63;3.13;;;6.30;99.90;;;;;;5045196;28;20934;-65
2023/03/08 09:23:44;;;;;;;3.03;2.73;;;5.90;99.90;;;;;;5045873;28;20412;-65
2023/03/08 09:26:10;;;;;;;7.00;3.50;;;5.60;99.90;;;;;;5044115;28;20438;-64
2023/03/08 09:28:36;;;;;;;5.63;3.90;;;5.50;99.90;;;;;;5038233;28;20422;-65
2023/03/08 09:31:11;;;;;;;4.43;3.43;;;5.60;99.90;;;;;;5045213;28;20511;-67
2023/03/08 09:33:42;;;;;;;4.50;3.43;;;5.30;99.90;;;;;;5040277;28;20171;-65
2023/03/08 09:36:08;;;;;;;4.33;3.23;;;5.20;99.90;;;;;;5040056;28;20541;-64
2023/03/08 09:38:34;;;;;;;3.47;3.17;;;5.10;99.90;;;;;;5044884;28;20486;-64
2023/03/08 09:41:42;;;;;;;2.60;2.40;;;5.00;99.90;;;;;;5048025;28;20500;-65
2023/03/08 09:44:10;;;;;;;2.67;2.47;;;5.30;99.90;;;;;;5033693;28;20165;-65
2023/03/08 09:46:45;;;;;;;3.30;3.03;;;5.50;99.90;;;;;;5044590;28;20429;-64
2023/03/08 09:49:22;;;;;;;2.70;2.30;;;6.00;99.90;;;;;;5035391;28;20867;-66
2023/03/08 09:51:52;;;;;;;4.73;3.97;;;5.30;99.90;;;;;;5038495;28;20438;-65
2023/03/08 09:54:22;;;;;;;3.07;2.83;;;5.60;99.90;;;;;;5043365;28;20415;-66
2023/03/08 09:56:50;;;;;;;4.40;3.13;;;5.40;99.90;;;;;;5044593;28;20767;-63
2023/03/08 09:59:26;;;;;;;4.40;3.50;;;5.80;99.90;;;;;;5040577;28;20511;-66
2023/03/08 10:01:55;;;;;;;2.97;2.63;;;6.00;99.90;;;;;;5044434;28;20441;-65
2023/03/08 10:04:29;;;;;;;5.67;3.00;;;6.10;99.90;;;;;;5033762;28;20921;-65
2023/03/08 10:07:20;;;;;;;5.33;3.40;;;6.00;99.90;;;;;;5044510;28;20424;-65
2023/03/08 10:10:02;;;;;;;3.43;2.50;;;6.20;99.90;;;;;;5033602;28;20400;-66
2023/03/08 10:13:08;;;;;;;3.40;2.43;;;6.30;99.90;;;;;;5030025;28;20449;-67
2023/03/08 10:15:40;;;;;;;3.13;2.17;;;6.10;99.90;;;;;;5011500;28;20500;-65
2023/03/08 10:18:09;;;;;;;4.00;2.60;;;6.10;99.90;;;;;;5038356;28;20400;-64
2023/03/08 10:20:36;;;;;;;2.43;2.23;;;6.50;99.90;;;;;;5043878;28;20853;-65
2023/03/08 10:23:13;;;;;;;3.50;2.53;;;6.40;99.90;;;;;;5041334;28;20496;-67
2023/03/08 10:25:38;;;;;;;3.33;2.17;;;6.60;99.90;;;;;;5032829;28;20464;-65
2023/03/08 10:28:16;;;;;;;2.90;2.60;;;6.60;99.90;;;;;;5035159;28;20415;-64
2023/03/08 10:30:55;;;;;;;3.37;2.07;;;6.30;99.90;;;;;;5027171;28;20539;-65
2023/03/08 10:33:26;;;;;;;3.53;2.47;;;6.70;99.90;;;;;;5039584;28;20421;-65
2023/03/08 10:36:30;;;;;;;2.50;1.80;;;6.90;99.90;;;;;;5042792;28;20468;-65
2023/03/08 10:39:07;;;;;;;3.07;2.50;;;6.80;99.90;;;;;;4951691;29;20413;-65
2023/03/08 10:41:42;;;;;;;5.80;2.10;;;6.30;99.90;;;;;;4949930;28;20999;-64
2023/03/08 10:44:29;;;;;;;3.37;2.77;;;6.30;99.90;;;;;;5006369;28;20411;-66
2023/03/08 10:46:55;;;;;;;4.07;2.87;;;6.00;99.90;;;;;;5041694;28;20768;-62
2023/03/08 10:49:23;;;;;;;3.10;2.33;;;6.00;99.90;;;;;;5035329;28;20441;-63
2023/03/08 10:51:58;;;;;;;3.13;2.50;;;6.20;99.90;;;;;;5044005;28;20956;-65
2023/03/08 10:54:24;;;;;;;3.90;2.60;;;6.10;99.90;;;;;;5043178;28;20405;-63
2023/03/08 10:56:54;;;;;;;2.17;1.97;;;5.70;99.90;;;;;;5035560;28;20847;-65
2023/03/08 10:59:31;;;;;;;2.80;2.57;;;5.70;99.90;;;;;;5042590;28;20458;-65
2023/03/08 11:02:01;;;;;;;3.47;2.23;;;5.90;99.90;;;;;;5036172;28;20422;-64
2023/03/08 11:04:28;;;;;;;3.23;2.13;;;6.10;99.90;;;;;;5045264;28;20410;-65
2023/03/08 11:06:54;;;;;;;3.67;3.00;;;6.20;99.90;;;;;;5036034;28;20411;-64
2023/03/08 11:09:32;;;;;;;3.83;3.00;;;6.30;99.90;;;;;;5043300;28;20411;-65
2023/03/08 11:11:59;;;;;;;2.97;2.27;;;6.60;99.90;;;;;;5037033;28;20215;-64
2023/03/08 11:14:26;;;;;;;4.13;3.20;;;6.40;99.90;;;;;;5044118;28;20429;-65
2023/03/08 11:17:03;;;;;;;4.80;3.13;;;6.30;99.90;;;;;;5022578;28;20931;-66
2023/03/08 11:19:35;;;;;;;4.13;3.60;;;6.70;99.90;;;;;;5034081;28;20468;-66
2023/03/08 11:22:27;;;;;;;3.67;3.37;;;6.70;99.90;;;;;;5038083;28;20517;-65
2023/03/08 11:25:08;;;;;;;3.47;3.17;;;6.60;99.90;;;;;;5038871;28;20481;-66
2023/03/08 11:27:55;;;;;;;3.60;2.87;;;6.90;99.90;;;;;;5031092;28;20811;-64
2023/03/08 11:30:56;;;;;;;3.30;2.77;;;6.70;99.90;;;;;;5022298;28;20402;-65
2023/03/08 11:33:36;;;;;;;3.83;3.40;;;6.10;99.90;;;;;;5033542;28;20447;-65
2023/03/08 11:36:19;;;;;;;3.67;2.87;;;6.30;99.90;;;;;;5042886;28;20420;-64
2023/03/08 11:38:57;;;;;;;3.90;3.00;;;6.10;99.90;;;;;;5038352;28;20411;-65
2023/03/08 11:42:01;;;;;;;3.30;3.00;;;5.90;99.90;;;;;;5039248;28;20429;-65
2023/03/08 11:44:45;;;;;;;3.17;2.93;;;6.00;99.90;;;;;;5044461;28;20431;-69
2023/03/08 11:47:28;;;;;;;3.20;2.90;;;5.60;99.90;;;;;;5038676;28;20900;-64
2023/03/08 11:49:53;;;;;;;4.33;2.93;;;5.80;99.90;;;;;;5042040;28;20404;-65
2023/03/08 11:53:04;;;;;;;5.03;3.47;;;5.60;99.90;;;;;;5019895;28;20954;-63
2023/03/08 11:55:44;;;;;;;2.93;2.63;;;5.60;99.90;;;;;;5031586;28;20653;-65
2023/03/08 11:58:39;;;;;;;10.13;2.33;;;5.70;99.90;;;;;;5036931;28;20398;-69
2023/03/08 12:01:16;;;;;;;3.40;2.30;;;6.10;99.90;;;;;;5031413;28;20477;-66
2023/03/08 12:03:52;;;;;;;5.33;2.87;;;6.30;99.90;;;;;;5042887;28;20414;-65
2023/03/08 12:06:23;;;;;;;3.63;2.60;;;6.20;99.90;;;;;;5039919;28;20514;-64
2023/03/08 12:09:31;;;;;;;2.50;2.03;;;6.20;99.90;;;;;;5038608;28;20409;-67
2023/03/08 12:12:23;;;;;;;2.50;2.30;;;6.30;99.90;;;;;;5031891;28;20472;-65
2023/03/08 12:15:25;;;;;;;5.27;3.60;;;6.20;99.90;;;;;;5026935;28;20476;-65
2023/03/08 12:18:03;;;;;;;2.63;2.30;;;6.30;99.90;;;;;;5034269;28;20417;-64
2023/03/08 12:20:35;;;;;;;3.10;2.33;;;5.90;99.90;;;;;;5030326;28;20453;-64
2023/03/08 12:23:10;;;;;;;2.93;2.60;;;6.10;99.90;;;;;;5037796;28;20441;-65
2023/03/08 12:25:40;;;;;;;2.47;2.30;;;6.40;99.90;;;;;;5030303;28;20992;-64
2023/03/08 12:28:22;;;;;;;2.70;2.50;;;6.20;99.90;;;;;;5033651;28;20415;-63
2023/03/08 12:31:18;;;;;;;5.13;2.70;;;6.20;99.90;;;;;;5042576;28;20409;-65
2023/03/08 12:33:45;;;;;;;2.53;2.33;;;5.90;99.90;;;;;;5040684;28;20394;-64
2023/03/08 12:36:11;;;;;;;3.30;2.73;;;6.00;99.90;;;;;;5044895;28;20930;-65
2023/03/08 12:38:44;;;;;;;4.40;2.83;;;6.20;99.90;;;;;;5034721;28;20422;-65
2023/03/08 12:41:25;;;;;;;4.37;2.70;;;5.80;99.90;;;;;;5047344;28;20325;-65
2023/03/08 12:44:23;;;;;;;3.13;2.83;;;5.80;99.90;;;;;;5026233;28;20509;-63
2023/03/08 12:46:56;;;;;;;6.00;2.53;;;5.90;99.90;;;;;;5035060;28;20481;-64
2023/03/08 12:49:27;;;;;;;3.23;2.93;;;5.80;99.90;;;;;;5045275;28;20415;-64
2023/03/08 12:51:59;;;;;;;2.63;2.43;;;5.90;99.90;;;;;;5045310;28;20967;-64
2023/03/08 12:54:28;;;;;;;3.40;2.20;;;5.80;99.90;;;;;;5045328;28;20408;-66
2023/03/08 12:56:54;;;;;;;1.93;1.83;;;5.90;99.90;;;;;;5044496;28;20857;-64
2023/03/08 12:59:20;;;;;;;3.47;3.17;;;5.90;99.90;;;;;;5044593;28;20457;-65
2023/03/08 13:01:57;;;;;;;2.67;2.43;;;5.80;99.90;;;;;;5047481;28;20512;-65
2023/03/08 13:04:38;;;;;;;6.03;4.57;;;5.90;99.90;;;;;;5039814;28;20170;-64
2023/03/08 13:07:23;;;;;;;5.10;3.00;;;5.80;99.90;;;;;;5043055;28;20401;-65
2023/03/08 13:10:07;;;;;;;3.60;3.30;;;6.00;99.90;;;;;;5043991;28;20441;-65